Time;durP1;ratioP1;P1;durP2;ratioP2;P2;SDS_P1;SDS_P2;PMS_P1;PMS_P2;Temp;Humidity;BMP_temperature;BMP_pressure;BME280_temperature;BME280_humidity;BME280_pressure;Samples;Min_cycle;Max_cycle;Signal;HPM_P1;HPM_P2
2023/05/29 00:01:51;;;;;;;3.73;3.43;;;;;;;20.81;49.78;94842.06;5987709;29;109115;-63
2023/05/29 00:04:54;;;;;;;4.13;3.40;;;;;;;20.83;49.84;94845.19;6001032;23;109163;-64
2023/05/29 00:07:57;;;;;;;6.20;3.90;;;;;;;20.82;49.53;94840.19;5970452;29;109099;-65
2023/05/29 00:11:01;;;;;;;4.03;3.70;;;;;;;20.83;49.69;94850.50;5969292;29;109376;-65
2023/05/29 00:14:04;;;;;;;4.97;3.60;;;;;;;20.83;49.89;94847.84;5969648;29;110097;-65
2023/05/29 00:17:09;;;;;;;4.80;3.97;;;;;;;20.82;49.54;94848.16;5976934;29;112187;-64
2023/05/29 00:20:13;;;;;;;4.13;3.50;;;;;;;20.81;49.82;94855.34;5991824;29;110159;-63
2023/05/29 00:23:16;;;;;;;4.90;3.40;;;;;;;20.82;49.62;94853.47;5988636;29;110210;-64
2023/05/29 00:26:19;;;;;;;4.63;3.53;;;;;;;20.79;49.71;94851.44;5993314;29;109282;-64
2023/05/29 00:29:22;;;;;;;3.73;3.40;;;;;;;20.79;49.78;94849.56;5975948;28;109138;-66
2023/05/29 00:32:27;;;;;;;3.43;3.23;;;;;;;20.81;49.79;94852.69;5987551;29;109125;-65
2023/05/29 00:35:31;;;;;;;4.10;3.70;;;;;;;20.78;49.63;94847.97;5986033;29;109913;-65
2023/05/29 00:38:34;;;;;;;4.50;3.73;;;;;;;20.81;49.23;94852.69;5982686;29;109129;-64
2023/05/29 00:41:37;;;;;;;4.13;3.50;;;;;;;20.84;49.65;94851.34;5978893;29;110267;-65
2023/05/29 00:44:40;;;;;;;4.40;4.00;;;;;;;20.83;49.70;94850.50;5977887;29;109107;-66
2023/05/29 00:47:45;;;;;;;7.10;3.80;;;;;;;20.79;49.23;94848.75;5969910;29;109061;-65
2023/05/29 00:50:49;;;;;;;3.90;3.40;;;;;;;20.75;49.20;94839.81;5980906;29;109272;-65
2023/05/29 00:53:53;;;;;;;4.10;3.37;;;;;;;20.76;49.22;94836.88;5980063;29;108892;-65
2023/05/29 00:56:58;;;;;;;12.50;5.50;;;;;;;20.74;49.55;94831.06;5986123;29;109283;-66
2023/05/29 01:00:05;;;;;;;4.00;3.47;;;;;;;20.76;49.42;94830.75;5992564;29;109092;-65
2023/05/29 01:03:09;;;;;;;5.33;3.30;;;;;;;20.77;49.16;94835.00;5978252;29;109252;-66
2023/05/29 01:06:13;;;;;;;5.77;3.60;;;;;;;20.70;48.91;94832.75;5994773;29;109258;-64
2023/05/29 01:09:16;;;;;;;4.47;3.20;;;;;;;20.68;48.81;94842.13;5993389;29;109104;-66
2023/05/29 01:12:32;;;;;;;4.77;3.57;;;;;;;20.68;49.16;94834.16;5990672;29;109686;-65
2023/05/29 01:15:47;;;;;;;4.30;3.50;;;;;;;20.68;49.23;94840.25;5973347;29;110091;-60
2023/05/29 01:18:58;;;;;;;3.73;3.20;;;;;;;20.68;49.24;94837.59;5995696;29;109071;-60
2023/05/29 01:22:13;;;;;;;3.77;3.20;;;;;;;20.67;48.65;94840.53;5993408;29;108960;-60
2023/05/29 01:25:22;;;;;;;3.63;3.37;;;;;;;20.64;49.05;94841.94;5974706;29;110229;-60
2023/05/29 01:28:33;;;;;;;4.20;3.43;;;;;;;20.61;48.77;94838.00;5994582;29;109141;-60
2023/05/29 01:31:38;;;;;;;5.33;4.20;;;;;;;20.63;48.72;94829.72;5994859;29;109355;-60
2023/05/29 01:34:41;;;;;;;3.20;2.97;;;;;;;20.63;49.04;94835.03;5995120;29;110182;-60
2023/05/29 01:37:44;;;;;;;3.50;3.20;;;;;;;20.62;48.82;94834.25;5984564;29;109180;-60
2023/05/29 01:40:49;;;;;;;5.10;3.27;;;;;;;20.64;48.63;94841.94;5994740;29;109782;-60
2023/05/29 01:43:54;;;;;;;3.90;3.60;;;;;;;20.60;48.62;94825.78;5993005;29;109480;-60
2023/05/29 01:46:58;;;;;;;4.90;3.23;;;;;;;20.64;48.94;94825.97;5987623;29;109266;-60
2023/05/29 01:50:03;;;;;;;4.23;3.50;;;;;;;20.63;48.82;94829.72;5993531;29;109127;-60
2023/05/29 01:53:06;;;;;;;3.80;3.50;;;;;;;20.63;48.93;94830.50;5994571;29;109861;-60
2023/05/29 01:56:10;;;;;;;3.70;3.40;;;;;;;20.62;49.12;94822.84;5983463;29;109134;-60
2023/05/29 01:59:15;;;;;;;5.13;3.43;;;;;;;20.59;48.87;94834.84;5984041;29;109039;-60
2023/05/29 02:02:18;;;;;;;3.77;3.37;;;;;;;20.56;48.76;94840.00;5994675;29;110104;-60
2023/05/29 02:05:21;;;;;;;3.87;3.47;;;;;;;20.54;48.76;94826.22;5994213;29;109384;-60
2023/05/29 02:08:24;;;;;;;4.83;3.83;;;;;;;20.53;48.99;94829.97;5993705;29;109071;-61
2023/05/29 02:11:28;;;;;;;4.93;3.73;;;;;;;20.52;48.92;94833.72;5968183;29;109291;-60
2023/05/29 02:14:32;;;;;;;5.30;3.80;;;;;;;20.52;48.94;94823.09;5993835;29;109089;-60
2023/05/29 02:17:36;;;;;;;4.13;3.73;;;;;;;20.51;48.70;94822.28;5994185;29;109111;-60
2023/05/29 02:20:39;;;;;;;4.67;3.80;;;;;;;20.47;48.87;94823.97;5989221;29;109092;-60
2023/05/29 02:23:42;;;;;;;5.70;3.80;;;;;;;20.48;48.87;94822.09;5988633;29;109404;-60
2023/05/29 02:26:46;;;;;;;4.93;4.13;;;;;;;20.46;48.70;94821.59;5994263;29;109910;-60
2023/05/29 02:29:51;;;;;;;4.20;3.80;;;;;;;20.47;48.63;94829.28;5993692;29;109339;-60
2023/05/29 02:32:54;;;;;;;4.33;3.40;;;;;;;20.47;48.84;94828.50;5984223;29;110130;-63
2023/05/29 02:35:58;;;;;;;4.33;3.93;;;;;;;20.48;49.07;94830.06;5993684;29;109273;-60
2023/05/29 02:39:01;;;;;;;6.47;4.60;;;;;;;20.53;49.09;94832.63;5993672;29;109120;-60
2023/05/29 02:42:05;;;;;;;3.93;3.57;;;;;;;20.59;49.08;94829.53;5993650;29;109191;-60
2023/05/29 02:45:10;;;;;;;4.33;3.57;;;;;;;20.60;48.97;94840.97;5983105;29;110087;-60
2023/05/29 02:48:13;;;;;;;5.37;4.60;;;;;;;20.60;49.51;94830.31;5993561;29;109112;-60
2023/05/29 02:51:16;;;;;;;5.40;3.77;;;;;;;20.61;49.78;94832.69;5994052;29;109248;-59
2023/05/29 02:54:19;;;;;;;6.07;4.53;;;;;;;20.63;49.28;94843.81;5993779;29;109136;-60
2023/05/29 02:57:23;;;;;;;6.10;5.10;;;;;;;20.66;49.35;94831.78;5984299;29;110522;-59
2023/05/29 03:00:28;;;;;;;13.03;11.37;;;;;;;20.67;49.55;94830.72;5992412;29;109138;-60
2023/05/29 03:03:31;;;;;;;12.60;11.40;;;;;;;20.69;49.52;94835.72;5992438;29;109110;-59
2023/05/29 03:06:36;;;;;;;9.93;7.97;;;;;;;20.20;50.21;94843.41;5983111;29;109156;-63
2023/05/29 03:09:39;;;;;;;7.07;6.30;;;;;;;20.15;50.48;94851.47;5993395;29;110137;-61
2023/05/29 03:12:43;;;;;;;12.20;6.20;;;;;;;20.39;51.50;94847.81;5999379;29;110287;-61
2023/05/29 03:15:48;;;;;;;17.13;10.40;;;;;;;20.50;51.27;94836.69;6010926;28;109002;-62
2023/05/29 03:18:52;;;;;;;15.40;5.70;;;;;;;20.49;49.87;94839.59;5982441;29;110432;-61
2023/05/29 03:21:55;;;;;;;13.20;8.43;;;;;;;20.60;51.02;94841.75;5992903;29;109405;-61
2023/05/29 03:24:58;;;;;;;5.33;4.90;;;;;;;20.58;49.90;94848.47;5993291;29;110149;-61
2023/05/29 03:28:01;;;;;;;5.23;4.73;;;;;;;20.07;50.45;94838.09;5993044;29;110900;-60
2023/05/29 03:31:06;;;;;;;10.43;4.67;;;;;;;19.84;50.90;94845.22;5982192;29;109155;-61
2023/05/29 03:34:09;;;;;;;6.00;4.70;;;;;;;19.69;51.04;94848.94;5991822;29;109230;-61
2023/05/29 03:37:12;;;;;;;11.27;4.87;;;;;;;19.60;51.48;94864.75;5990076;29;110267;-67
2023/05/29 03:40:15;;;;;;;4.63;4.23;;;;;;;19.22;52.13;94866.72;5989500;29;109927;-67
2023/05/29 03:43:18;;;;;;;37.20;7.37;;;;;;;19.49;51.78;94866.03;5985284;29;109135;-67
2023/05/29 03:46:23;;;;;;;10.57;5.47;;;;;;;19.53;51.68;94861.72;5992844;29;109321;-67
2023/05/29 03:49:26;;;;;;;6.37;4.20;;;;;;;19.54;51.69;94867.81;5992577;29;108939;-67
2023/05/29 03:52:29;;;;;;;12.87;5.87;;;;;;;19.59;51.91;94867.72;5982084;29;110081;-66
2023/05/29 03:55:33;;;;;;;10.87;5.53;;;;;;;19.45;52.49;94870.34;5992303;29;109081;-67
2023/05/29 03:58:37;;;;;;;11.27;5.00;;;;;;;19.42;52.53;94865.63;5992429;29;109161;-68
2023/05/29 04:01:41;;;;;;;9.13;5.33;;;;;;;19.66;52.48;94870.78;5991730;29;109376;-68
2023/05/29 04:04:44;;;;;;;9.90;5.20;;;;;;;19.55;52.54;94880.78;5980473;29;109112;-67
2023/05/29 04:07:47;;;;;;;9.43;5.70;;;;;;;19.61;52.41;94882.25;5992590;29;110100;-67
2023/05/29 04:10:53;;;;;;;7.30;5.10;;;;;;;19.81;52.09;94885.59;5992531;29;109463;-68
2023/05/29 04:13:56;;;;;;;9.63;5.10;;;;;;;-145.53;100.00;64590.91;5993592;29;109119;-62
2023/05/29 04:17:01;;;;;;;10.90;5.00;;;;;;;-145.53;100.00;64590.91;6094248;29;20776;-68
2023/05/29 04:20:08;;;;;;;21.67;6.70;;;;;;;-145.53;100.00;64590.91;6102010;29;20453;-68
2023/05/29 04:23:11;;;;;;;14.00;5.10;;;;;;;-145.53;100.00;64590.91;6101641;29;20425;-68
2023/05/29 04:26:14;;;;;;;10.50;5.40;;;;;;;-145.53;100.00;64590.91;6092241;29;20445;-68
2023/05/29 04:29:18;;;;;;;19.43;6.40;;;;;;;-145.53;100.00;64590.91;6101338;29;20440;-66
2023/05/29 04:32:22;;;;;;;25.37;8.00;;;;;;;-145.53;100.00;64590.91;6101717;29;20446;-67
2023/05/29 04:35:28;;;;;;;32.10;7.30;;;;;;;-145.53;100.00;64590.91;6104728;29;20449;-67
2023/05/29 04:38:31;;;;;;;23.57;7.00;;;;;;;-145.53;100.00;64590.91;6095407;29;20461;-67
2023/05/29 04:41:35;;;;;;;19.63;6.90;;;;;;;-145.53;100.00;64590.91;6105688;29;20501;-68
2023/05/29 04:44:38;;;;;;;25.53;7.03;;;;;;;-145.53;100.00;64590.91;6105479;29;20606;-67
2023/05/29 04:47:44;;;;;;;17.33;8.17;;;;;;;-145.53;100.00;64590.91;6105733;29;20938;-67
2023/05/29 04:50:48;;;;;;;26.17;7.90;;;;;;;-145.53;100.00;64590.91;6095592;29;20445;-68
2023/05/29 04:53:52;;;;;;;19.07;8.13;;;;;;;-145.53;100.00;64590.91;6105374;29;20828;-66
2023/05/29 04:56:55;;;;;;;18.17;8.17;;;;;;;-145.53;100.00;64590.91;6105470;29;20437;-66
2023/05/29 04:59:58;;;;;;;21.70;8.60;;;;;;;-145.53;100.00;64590.91;6100032;29;20448;-66
2023/05/29 05:03:03;;;;;;;18.70;8.03;;;;;;;-145.53;100.00;64590.91;6100468;29;20445;-66
2023/05/29 05:06:07;;;;;;;12.47;7.17;;;;;;;-145.53;100.00;64590.91;6105366;29;20453;-68
2023/05/29 05:09:11;;;;;;;12.60;6.77;;;;;;;-145.53;100.00;64590.91;6105226;29;20448;-66
2023/05/29 05:12:14;;;;;;;10.67;6.70;;;;;;;-145.53;100.00;64590.91;6094444;29;20441;-67
2023/05/29 05:15:17;;;;;;;8.90;6.17;;;;;;;-145.53;100.00;64590.91;6105184;29;20524;-68
2023/05/29 05:18:21;;;;;;;8.40;5.47;;;;;;;-145.53;100.00;64590.91;6105037;29;20450;-66
2023/05/29 05:21:24;;;;;;;7.83;5.73;;;;;;;-145.53;100.00;64590.91;6104520;29;20449;-66
2023/05/29 05:24:28;;;;;;;13.57;6.10;;;;;;;-145.53;100.00;64590.91;6094708;29;20454;-66
2023/05/29 05:27:31;;;;;;;7.63;5.50;;;;;;;-145.53;100.00;64590.91;6105015;29;20441;-66
2023/05/29 05:30:34;;;;;;;9.63;5.90;;;;;;;-145.53;100.00;64590.91;6104529;29;20441;-67
2023/05/29 05:33:38;;;;;;;10.23;5.67;;;;;;;-145.53;100.00;64590.91;6100002;29;20460;-65
2023/05/29 05:36:41;;;;;;;7.60;5.80;;;;;;;-145.53;100.00;64590.91;6098777;29;20463;-67
2023/05/29 05:39:45;;;;;;;6.90;6.20;;;;;;;-145.53;100.00;64590.91;6104724;29;20445;-66
2023/05/29 05:42:48;;;;;;;8.30;5.63;;;;;;;-145.53;100.00;64590.91;6104464;29;20513;-66
2023/05/29 05:45:51;;;;;;;10.67;6.80;;;;;;;-145.53;100.00;64590.91;6094052;29;20465;-66
2023/05/29 05:48:57;;;;;;;6.83;5.90;;;;;;;-145.53;100.00;64590.91;6104219;29;20456;-66
2023/05/29 05:52:00;;;;;;;7.07;6.27;;;;;;;-145.53;100.00;64590.91;6104422;29;20433;-66
2023/05/29 05:55:04;;;;;;;10.90;5.80;;;;;;;-145.53;100.00;64590.91;6104171;29;20518;-66
2023/05/29 05:58:07;;;;;;;7.07;6.37;;;;;;;-145.53;100.00;64590.91;6094486;29;20817;-64
2023/05/29 06:01:10;;;;;;;12.97;9.67;;;;;;;-145.53;100.00;64590.91;6104408;29;20460;-59
2023/05/29 06:04:15;;;;;;;13.40;12.20;;;;;;;-145.53;100.00;64590.91;6103766;29;20529;-59
2023/05/29 06:07:18;;;;;;;16.70;14.80;;;;;;;-145.53;100.00;64590.91;6104253;29;20590;-59
2023/05/29 06:10:22;;;;;;;13.20;11.83;;;;;;;-145.53;100.00;64590.91;6093541;29;20580;-60
2023/05/29 06:13:25;;;;;;;10.20;9.20;;;;;;;-145.53;100.00;64590.91;6104217;29;20437;-60
2023/05/29 06:16:28;;;;;;;9.13;8.20;;;;;;;-145.53;100.00;64590.91;6103946;29;20939;-60
2023/05/29 06:19:32;;;;;;;9.30;8.50;;;;;;;-145.53;100.00;64590.91;6094549;29;20457;-60
2023/05/29 06:22:36;;;;;;;8.17;6.90;;;;;;;-145.53;100.00;64590.91;6103581;29;20453;-59
2023/05/29 06:25:39;;;;;;;8.30;6.97;;;;;;;-145.53;100.00;64590.91;6103775;29;20457;-59
2023/05/29 06:28:42;;;;;;;8.00;7.20;;;;;;;-145.53;100.00;64590.91;6104089;29;20442;-60
2023/05/29 06:31:45;;;;;;;7.93;6.63;;;;;;;-145.53;100.00;64590.91;6092839;29;20495;-60
2023/05/29 06:34:50;;;;;;;6.87;6.17;;;;;;;-145.53;100.00;64590.91;6103836;29;20923;-60
2023/05/29 06:37:53;;;;;;;7.60;6.80;;;;;;;-145.53;100.00;64590.91;6103856;29;20448;-60
2023/05/29 06:40:56;;;;;;;6.33;5.73;;;;;;;-145.53;100.00;64590.91;6103941;29;20437;-60
2023/05/29 06:44:00;;;;;;;6.70;6.10;;;;;;;-145.53;100.00;64590.91;6093670;29;20513;-60
2023/05/29 06:47:03;;;;;;;11.40;6.93;;;;;;;-145.53;100.00;64590.91;6103820;29;20441;-60
2023/05/29 06:50:08;;;;;;;8.10;5.67;;;;;;;-145.53;100.00;64590.91;6103620;29;20532;-60
2023/05/29 06:53:12;;;;;;;9.30;5.47;;;;;;;-145.53;100.00;64590.91;6098747;29;20505;-60
2023/05/29 06:56:15;;;;;;;9.87;5.97;;;;;;;-145.53;100.00;64590.91;6097013;29;20453;-60
2023/05/29 06:59:18;;;;;;;12.77;6.40;;;;;;;-145.53;100.00;64590.91;6103348;29;20437;-60
2023/05/29 07:02:21;;;;;;;14.20;7.67;;;;;;;-145.53;100.00;64590.91;6103559;29;20464;-60
2023/05/29 07:05:27;;;;;;;19.30;12.90;;;;;;;-145.53;100.00;64590.91;6092329;29;20468;-60
2023/05/29 07:08:30;;;;;;;16.17;13.73;;;;;;;-145.53;100.00;64590.91;6103468;29;20418;-60
2023/05/29 07:11:34;;;;;;;25.63;21.87;;;;;;;-145.53;100.00;64590.91;6103191;29;20514;-60
2023/05/29 07:14:37;;;;;;;40.97;36.53;;;;;;;-145.53;100.00;64590.91;6106318;29;20513;-60
2023/05/29 07:17:40;;;;;;;42.30;37.80;;;;;;;-145.53;100.00;64590.91;6092543;29;21092;-60
2023/05/29 07:20:45;;;;;;;41.10;36.80;;;;;;;-145.53;100.00;64590.91;6102821;29;20568;-60
2023/05/29 07:23:48;;;;;;;57.13;38.63;;;;;;;-145.53;100.00;64590.91;6102823;29;20437;-61
2023/05/29 07:26:51;;;;;;;58.40;39.57;;;;;;;-145.53;100.00;64590.91;6102713;29;20919;-60
2023/05/29 07:29:54;;;;;;;62.20;37.60;;;;;;;-145.53;100.00;64590.91;6091659;29;20536;-61
2023/05/29 07:32:57;;;;;;;64.57;38.70;;;;;;;-145.53;100.00;64590.91;6102736;29;20446;-61
2023/05/29 07:36:02;;;;;;;54.07;32.87;;;;;;;-145.53;100.00;64590.91;6102609;29;20444;-61
2023/05/29 07:39:07;;;;;;;58.40;33.00;;;;;;;-145.53;100.00;64590.91;6095296;29;20971;-62
2023/05/29 07:42:10;;;;;;;56.03;33.70;;;;;;;-145.53;100.00;64590.91;6100856;29;20453;-61
2023/05/29 07:45:13;;;;;;;50.43;34.67;;;;;;;-145.53;100.00;64590.91;6102318;29;20562;-61
2023/05/29 07:48:17;;;;;;;56.60;33.77;;;;;;;-145.53;100.00;64590.91;6102405;29;20437;-61
2023/05/29 07:51:24;;;;;;;52.97;33.00;;;;;;;-145.53;100.00;64590.91;6091592;29;20453;-61
2023/05/29 07:54:27;;;;;;;53.80;28.90;;;;;;;-145.53;100.00;64590.91;6102309;29;20432;-61
2023/05/29 07:57:30;;;;;;;43.93;28.40;;;;;;;-145.53;100.00;64590.91;6102244;29;20469;-62
2023/05/29 08:00:34;;;;;;;42.37;25.10;;;;;;;-145.53;100.00;64590.91;6102206;29;20441;-61
2023/05/29 08:03:37;;;;;;;36.00;24.63;;;;;;;-145.53;100.00;64590.91;6091070;29;20498;-61
2023/05/29 08:06:43;;;;;;;35.30;24.30;;;;;;;-145.53;100.00;64590.91;6102001;29;20981;-61
2023/05/29 08:09:46;;;;;;;40.53;22.93;;;;;;;-145.53;100.00;64590.91;6105857;29;20430;-61
2023/05/29 08:12:50;;;;;;;40.50;21.00;;;;;;;-145.53;100.00;64590.91;6101152;29;20972;-62
2023/05/29 08:15:53;;;;;;;28.90;19.53;;;;;;;-145.53;100.00;64590.91;6100779;29;20485;-59
2023/05/29 08:18:56;;;;;;;29.33;19.50;;;;;;;-145.53;100.00;64590.91;6106184;29;20477;-57
2023/05/29 08:22:01;;;;;;;31.50;25.90;;;;;;;-145.53;100.00;64590.91;6106099;29;20525;-60
2023/05/29 08:25:05;;;;;;;45.17;30.87;;;;;;;-145.53;100.00;64590.91;6095757;29;20973;-58
2023/05/29 08:28:08;;;;;;;40.77;34.50;;;;;;;-145.53;100.00;64590.91;6106064;29;20437;-58
2023/05/29 08:31:11;;;;;;;47.17;40.97;;;;;;;-145.53;100.00;64590.91;6106054;29;20596;-58
2023/05/29 08:34:15;;;;;;;53.53;41.23;;;;;;;-145.53;100.00;64590.91;6105944;29;20432;-58
2023/05/29 08:37:19;;;;;;;60.50;48.50;;;;;;;-145.53;100.00;64590.91;6095082;29;20593;-58
2023/05/29 08:40:22;;;;;;;59.53;52.97;;;;;;;-145.53;100.00;64590.91;6106073;29;20452;-58
2023/05/29 08:43:29;;;;;;;60.57;51.63;;;;;;;-145.53;100.00;64590.91;6105729;29;20438;-59
2023/05/29 08:46:33;;;;;;;63.30;51.27;;;;;;;-145.53;100.00;64590.91;6105153;29;20447;-59
2023/05/29 08:49:42;;;;;;;63.70;50.40;;;;;;;-145.53;100.00;64590.91;6097918;29;20460;-59
2023/05/29 08:52:48;;;;;;;56.47;50.33;;;;;;;-145.53;100.00;64590.91;6105740;29;20429;-59
2023/05/29 08:55:52;;;;;;;57.90;46.97;;;;;;;-145.53;100.00;64590.91;6105486;29;20949;-58
2023/05/29 08:58:56;;;;;;;51.10;45.80;;;;;;;-145.53;100.00;64590.91;6094967;29;20457;-60
2023/05/29 09:01:59;;;;;;;53.87;44.90;;;;;;;-145.53;100.00;64590.91;6105303;29;20449;-59
2023/05/29 09:05:03;;;;;;;46.87;41.60;;;;;;;-145.53;100.00;64590.91;6104952;29;20445;-59
2023/05/29 09:08:09;;;;;;;48.43;42.30;;;;;;;-145.53;100.00;64590.91;6105187;29;20457;-59
2023/05/29 09:11:12;;;;;;;49.60;39.77;;;;;;;-145.53;100.00;64590.91;6094396;29;20930;-59
2023/05/29 09:14:35;;;;;;;52.50;40.13;;;;;;;-145.53;100.00;64590.91;6105122;29;20444;-59
2023/05/29 09:17:39;;;;;;;48.40;41.20;;;;;;;-145.53;100.00;64590.91;6105192;29;20422;-58
2023/05/29 09:20:43;;;;;;;45.70;40.97;;;;;;;-145.53;100.00;64590.91;6101603;29;20445;-59
2023/05/29 09:23:47;;;;;;;48.77;43.47;;;;;;;-145.53;100.00;64590.91;6099080;29;20458;-60
2023/05/29 09:26:50;;;;;;;47.43;42.03;;;;;;;-145.53;100.00;64590.91;6104820;29;20544;-59
2023/05/29 09:29:54;;;;;;;46.80;41.77;;;;;;;-145.53;100.00;64590.91;6105147;29;20437;-68
2023/05/29 09:32:57;;;;;;;43.80;39.17;;;;;;;-145.53;100.00;64590.91;6095036;29;20472;-67
2023/05/29 09:36:00;;;;;;;46.50;39.20;;;;;;;-145.53;100.00;64590.91;6104368;29;20445;-70
2023/05/29 09:39:09;;;;;;;42.70;37.07;;;;;;;-145.53;100.00;64590.91;6104786;29;20944;-68
2023/05/29 09:42:20;;;;;;;40.03;34.73;;;;;;;-145.53;100.00;64590.91;6104683;29;20570;-66
2023/05/29 09:45:26;;;;;;;38.73;34.60;;;;;;;-145.53;100.00;64590.91;6094405;29;20445;-66
2023/05/29 09:48:30;;;;;;;39.70;33.80;;;;;;;-145.53;100.00;64590.91;6104790;29;20432;-68
2023/05/29 09:51:34;;;;;;;36.60;30.00;;;;;;;-145.53;100.00;64590.91;6104553;29;20437;-67
2023/05/29 09:54:39;;;;;;;36.20;27.63;;;;;;;-145.53;100.00;64590.91;6104690;29;20445;-67
2023/05/29 09:57:43;;;;;;;31.20;27.83;;;;;;;-145.53;100.00;64590.91;6095241;29;20445;-68
2023/05/29 10:00:47;;;;;;;34.07;28.47;;;;;;;-145.53;100.00;64590.91;6104308;29;20449;-68
2023/05/29 10:03:50;;;;;;;36.43;31.33;;;;;;;-145.53;100.00;64590.91;6103566;29;20453;-68
2023/05/29 10:06:56;;;;;;;40.47;32.53;;;;;;;-145.53;100.00;64590.91;6094450;29;20998;-66
2023/05/29 10:10:05;;;;;;;37.03;32.90;;;;;;;-145.53;100.00;64590.91;6103763;29;20486;-70
2023/05/29 10:13:11;;;;;;;38.57;31.30;;;;;;;-145.53;100.00;64590.91;6104097;29;20482;-68
2023/05/29 10:16:15;;;;;;;34.90;28.70;;;;;;;-145.53;100.00;64590.91;6103801;29;20454;-67
2023/05/29 10:19:23;;;;;;;39.70;29.80;;;;;;;-145.53;100.00;64590.91;6094069;29;20438;-68
2023/05/29 10:22:28;;;;;;;39.40;29.17;;;;;;;-145.53;100.00;64590.91;6103920;29;20516;-68
2023/05/29 10:25:36;;;;;;;32.90;26.43;;;;;;;-145.53;100.00;64590.91;6103906;29;20998;-68
2023/05/29 10:28:43;;;;;;;29.70;24.20;;;;;;;-145.53;100.00;64590.91;6103771;29;20934;-68
2023/05/29 10:32:02;;;;;;;31.73;23.10;;;;;;;-145.53;100.00;64590.91;6093492;29;20445;-68
2023/05/29 10:35:12;;;;;;;25.97;21.20;;;;;;;-145.53;100.00;64590.91;6103928;29;20418;-68
2023/05/29 10:38:18;;;;;;;25.10;21.00;;;;;;;-145.53;100.00;64590.91;6103681;29;20426;-62
2023/05/29 10:41:39;;;;;;;23.43;20.70;;;;;;;-145.53;100.00;64590.91;6092686;29;20484;-62
2023/05/29 10:44:42;;;;;;;21.93;19.20;;;;;;;-145.53;100.00;64590.91;6103492;29;20425;-62
2023/05/29 10:47:46;;;;;;;20.20;17.40;;;;;;;-145.53;100.00;64590.91;6103357;29;20464;-67
2023/05/29 10:50:50;;;;;;;23.10;17.17;;;;;;;-145.53;100.00;64590.91;6103378;29;20445;-61
2023/05/29 10:54:02;;;;;;;18.07;15.73;;;;;;;;;;6306697;28;20537;-62
2023/05/29 10:57:09;;;;;;;10.57;8.47;;;;;;;;;;6318502;28;20503;-67
2023/05/29 11:00:18;;;;;;;6.90;5.67;;;;;;;;;;6318668;28;20422;-66
2023/05/29 11:03:23;;;;;;;73.37;59.43;;;;;;;;;;6312541;28;20449;-67
2023/05/29 11:06:26;;;;;;;98.00;82.20;;;;;;;;;;6313072;28;20898;-68
2023/05/29 11:29:53;;;;;;;5.30;3.83;;;;;;;;;;6279232;28;20447;-65
2023/05/29 11:45:19;;;;;;;9.43;3.43;;;;;;;;;;6296333;28;20501;-65
2023/05/29 11:48:23;;;;;;;5.03;3.87;;;;;;;;;;6317691;28;20456;-66
2023/05/29 11:51:27;;;;;;;3.97;3.53;;;;;;;;;;6317254;28;20973;-67
2023/05/29 11:54:30;;;;;;;6.63;4.10;;;;;;;;;;6312767;28;20499;-64
2023/05/29 11:57:32;;;;;;;4.27;3.87;;;;;;;;;;6311160;28;20441;-66
2023/05/29 12:00:37;;;;;;;4.23;3.90;;;;;;;;;;6317402;28;20441;-67
2023/05/29 12:03:41;;;;;;;3.93;3.60;;;;;;;;;;6309878;28;20943;-68
2023/05/29 12:06:44;;;;;;;5.23;3.50;;;;;;;;;;6289806;28;20438;-68
2023/05/29 12:09:48;;;;;;;5.20;3.87;;;;;;;;;;6300122;28;20450;-68
2023/05/29 12:12:52;;;;;;;4.10;3.30;;;;;;;;;;6300244;28;20444;-68
2023/05/29 12:15:58;;;;;;;3.80;3.50;;;;;;;;;;6300153;28;20438;-67
2023/05/29 12:19:01;;;;;;;4.00;3.60;;;;;;;;;;6288897;28;20457;-66
2023/05/29 12:22:04;;;;;;;4.50;4.00;;;;;;;;;;6300130;28;20572;-65
2023/05/29 12:25:08;;;;;;;6.23;4.70;;;;;;;;;;6300194;28;20929;-66
2023/05/29 12:28:16;;;;;;;4.10;3.80;;;;;;;;;;6299963;28;20478;-69
2023/05/29 12:31:30;;;;;;;4.10;3.80;;;;;;;;;;6288715;28;20797;-67
2023/05/29 12:34:36;;;;;;;6.50;3.73;;;;;;;;;;6299903;28;20434;-68
2023/05/29 12:37:43;;;;;;;6.00;3.80;;;;;;;;;;6299821;28;20427;-68
2023/05/29 12:40:49;;;;;;;3.77;3.37;;;;;;;;;;6289305;28;20445;-67
2023/05/29 12:43:53;;;;;;;4.30;3.93;;;;;;;;;;6299236;28;20445;-68
2023/05/29 12:46:59;;;;;;;3.93;3.60;;;;;;;;;;6299614;28;20461;-67
2023/05/29 12:50:05;;;;;;;6.40;4.07;;;;;;;;;;6299630;28;20415;-67
2023/05/29 12:53:08;;;;;;;5.90;4.27;;;;;;;;;;6288228;28;20954;-68
2023/05/29 12:56:11;;;;;;;6.00;4.10;;;;;;;;;;6299457;28;20825;-67
2023/05/29 12:59:15;;;;;;;9.90;4.60;;;;;;;;;;6299553;28;20812;-61
2023/05/29 13:02:20;;;;;;;6.40;5.70;;;;;;;;;;6299437;28;20446;-59
2023/05/29 13:05:23;;;;;;;6.13;5.53;;;;;;;;;;6288435;28;20445;-60
2023/05/29 13:08:26;;;;;;;7.87;7.10;;;;;;;;;;6299464;28;20465;-60
2023/05/29 13:11:29;;;;;;;7.73;7.00;;;;;;;;;;6299373;28;20442;-60
2023/05/29 13:14:32;;;;;;;9.13;7.00;;;;;;;;;;6292781;28;20450;-61
2023/05/29 13:17:36;;;;;;;8.97;7.10;;;;;;;;;;6294667;28;20437;-60
2023/05/29 13:20:39;;;;;;;12.27;7.37;;;;;;;;;;6299208;28;20437;-60
2023/05/29 13:23:42;;;;;;;10.00;6.93;;;;;;;;;;6299181;28;20430;-60
2023/05/29 13:26:44;;;;;;;10.07;6.70;;;;;;;;;;6288548;28;20524;-60
2023/05/29 13:29:47;;;;;;;15.30;7.03;;;;;;;;;;6298969;28;20438;-60
2023/05/29 13:32:53;;;;;;;10.93;7.00;;;;;;;;;;6299046;28;20438;-60
2023/05/29 13:35:56;;;;;;;7.60;6.23;;;;;;;;;;6298954;28;20422;-60
2023/05/29 13:39:00;;;;;;;11.00;6.13;;;;;;;;;;6288325;28;20438;-60
2023/05/29 13:42:03;;;;;;;13.80;6.47;;;;;;;;;;6298911;28;20435;-60
2023/05/29 13:45:07;;;;;;;15.40;6.50;;;;;;;;;;6298631;28;20430;-60
2023/05/29 13:48:11;;;;;;;10.60;5.90;;;;;;;;;;6293972;28;20442;-65
2023/05/29 13:51:14;;;;;;;17.23;9.40;;;;;;;;;;6292304;28;20431;-60
2023/05/29 13:54:17;;;;;;;15.10;8.50;;;;;;;;;;6298301;28;20492;-60
2023/05/29 13:57:20;;;;;;;12.37;7.83;;;;;;;;;;6298357;28;20790;-61
2023/05/29 14:00:23;;;;;;;30.33;7.50;;;;;;;;;;6287609;28;20814;-61
2023/05/29 14:03:28;;;;;;;12.80;5.17;;;;;;;;;;6298095;28;20466;-60
2023/05/29 14:06:32;;;;;;;11.13;4.97;;;;;;;;;;6298281;28;20419;-61
2023/05/29 14:09:35;;;;;;;680.50;49.43;;;;;;;;;;6298523;28;20480;-60
2023/05/29 14:12:37;;;;;;;545.83;48.83;;;;;;;;;;6286910;28;20458;-61
2023/05/29 14:15:40;;;;;;;1074.13;85.00;;;;;;;;;;6297992;28;20513;-60
2023/05/29 14:18:44;;;;;;;275.30;25.10;;;;;;;;;;6297953;28;20443;-60
2023/05/29 14:21:47;;;;;;;376.13;70.00;;;;;;;;;;6298033;28;20430;-60
2023/05/29 14:24:50;;;;;;;186.83;63.63;;;;;;;;;;6286511;28;20438;-61
2023/05/29 14:27:53;;;;;;;71.50;32.00;;;;;;;;;;6297332;28;20435;-61
2023/05/29 14:30:56;;;;;;;13.20;7.23;;;;;;;;;;6297898;28;20433;-60
2023/05/29 14:34:00;;;;;;;8.57;6.23;;;;;;;;;;6292536;28;20450;-61
2023/05/29 14:37:03;;;;;;;10.97;5.27;;;;;;;;;;6292255;28;20434;-60
2023/05/29 14:40:06;;;;;;;11.23;10.13;;;;;;;;;;6273140;28;20435;-60
2023/05/29 14:43:09;;;;;;;6.20;3.80;;;;;;;;;;6272421;28;20522;-60
2023/05/29 14:46:13;;;;;;;8.90;5.13;;;;;;;;;;6278383;28;20442;-61
2023/05/29 14:49:17;;;;;;;8.57;5.10;;;;;;;;;;6297034;28;20817;-60
2023/05/29 14:52:20;;;;;;;5.57;3.70;;;;;;;;;;6296556;28;20815;-60
2023/05/29 14:55:22;;;;;;;4.73;3.70;;;;;;;;;;6296935;28;20446;-61
2023/05/29 14:58:25;;;;;;;3.40;3.07;;;;;;;;;;6285843;28;20445;-61
2023/05/29 15:01:28;;;;;;;121.97;17.23;;;;;;;;;;6284355;28;20439;-60
2023/05/29 15:04:32;;;;;;;49.00;8.23;;;;;;;;;;6271822;28;20445;-60
2023/05/29 15:07:35;;;;;;;10.50;4.53;;;;;;;;;;6269212;28;20534;-61
2023/05/29 15:10:38;;;;;;;12.37;4.50;;;;;;;;;;6264908;28;20442;-60
2023/05/29 15:13:41;;;;;;;16.40;7.00;;;;;;;;;;6271421;28;20447;-60
2023/05/29 15:16:44;;;;;;;14.07;6.77;;;;;;;;;;6293024;28;20476;-60
2023/05/29 15:19:48;;;;;;;12.83;6.50;;;;;;;;;;6286773;28;20492;-59
2023/05/29 15:22:51;;;;;;;11.00;5.33;;;;;;;;;;6296636;28;20931;-59
2023/05/29 15:25:54;;;;;;;10.27;5.47;;;;;;;;;;6296960;28;20430;-59